createdAt,value
2016-11-25T00:00:55.797Z,99.99
2016-11-25T00:01:55.779Z,99.99
2016-11-25T00:02:55.758Z,99.99
2016-11-25T00:03:56.050Z,99.99
2016-11-25T00:04:55.716Z,99.99
2016-11-25T00:05:55.696Z,99.99
2016-11-25T00:06:55.678Z,99.99
2016-11-25T00:07:55.656Z,99.99
2016-11-25T00:08:55.638Z,99.99
2016-11-25T00:09:55.619Z,99.99
2016-11-25T00:10:55.595Z,99.99
2016-11-25T00:11:55.579Z,99.99
2016-11-25T00:12:55.559Z,99.99
2016-11-25T00:13:55.543Z,99.99
2016-11-25T00:14:55.519Z,99.99
2016-11-25T00:15:55.493Z,99.99
2016-11-25T00:16:55.480Z,99.99
2016-11-25T00:17:55.454Z,99.99
2016-11-25T00:18:55.435Z,99.99
2016-11-25T00:19:55.416Z,99.99
2016-11-25T00:20:55.393Z,99.99
2016-11-25T00:21:55.375Z,99.99
2016-11-25T00:22:55.353Z,99.99
2016-11-25T00:23:55.650Z,99.99
2016-11-25T00:24:55.314Z,99.99
2016-11-25T00:25:55.297Z,99.99
2016-11-25T00:26:55.274Z,99.99
2016-11-25T00:27:55.253Z,99.99
2016-11-25T00:28:55.239Z,99.99
2016-11-25T00:29:55.211Z,99.99
2016-11-25T00:30:55.195Z,99.99
2016-11-25T00:31:55.171Z,99.99
2016-11-25T00:32:55.155Z,99.99
2016-11-25T00:33:55.135Z,99.99
2016-11-25T00:34:55.427Z,99.99
2016-11-25T00:35:55.095Z,99.99
2016-11-25T00:36:55.073Z,99.99
2016-11-25T00:37:55.054Z,99.99
2016-11-25T00:38:55.031Z,99.99
2016-11-25T00:39:55.008Z,99.99
2016-11-25T00:40:54.992Z,99.99
2016-11-25T00:41:54.974Z,99.99
2016-11-25T00:42:54.952Z,99.99
2016-11-25T00:43:54.931Z,99.99
2016-11-25T00:44:54.910Z,99.99
2016-11-25T00:45:54.890Z,99.99
2016-11-25T00:46:54.869Z,99.99
2016-11-25T00:47:54.848Z,99.99
2016-11-25T00:48:54.834Z,99.99
2016-11-25T00:49:54.808Z,99.99
2016-11-25T00:50:54.795Z,99.99
2016-11-25T00:51:54.773Z,99.99
2016-11-25T00:52:54.749Z,99.99
2016-11-25T00:53:54.729Z,99.99
2016-11-25T00:54:54.706Z,99.99
2016-11-25T00:55:54.686Z,99.99
2016-11-25T00:56:54.978Z,99.99
2016-11-25T00:57:54.958Z,99.99
2016-11-25T00:58:54.623Z,99.99
2016-11-25T00:59:54.603Z,99.99
2016-11-25T01:00:54.588Z,99.99
2016-11-25T01:01:54.568Z,99.99
2016-11-25T01:02:54.545Z,99.99
2016-11-25T01:03:54.527Z,99.99
2016-11-25T01:04:54.504Z,99.99
2016-11-25T01:05:54.483Z,99.99
2016-11-25T01:06:54.462Z,99.99
2016-11-25T01:07:54.442Z,99.99
2016-11-25T01:08:54.423Z,99.99
2016-11-25T01:09:54.719Z,99.99
2016-11-25T01:10:54.382Z,99.99
2016-11-25T01:11:54.362Z,99.99
2016-11-25T01:12:54.341Z,99.99
2016-11-25T01:13:54.319Z,99.99
2016-11-25T01:14:54.615Z,99.99
2016-11-25T01:15:54.279Z,99.99
2016-11-25T01:16:54.262Z,99.99
2016-11-25T01:17:54.239Z,99.99
2016-11-25T01:18:54.247Z,99.99
2016-11-25T01:19:54.199Z,99.99
2016-11-25T01:20:54.208Z,99.99
2016-11-25T01:21:54.157Z,99.99
2016-11-25T01:22:54.137Z,99.99
2016-11-25T01:23:54.146Z,99.99
2016-11-25T01:24:54.093Z,99.99
2016-11-25T01:25:54.078Z,99.99
2016-11-25T01:26:54.056Z,99.99
2016-11-25T01:27:54.037Z,99.99
2016-11-25T01:28:54.013Z,99.99
2016-11-25T01:29:53.990Z,99.99
2016-11-25T01:30:53.971Z,99.99
2016-11-25T01:31:53.953Z,99.99
2016-11-25T01:32:53.930Z,99.99
2016-11-25T01:33:53.915Z,99.99
2016-11-25T01:34:53.888Z,99.99
2016-11-25T01:35:53.872Z,99.99
2016-11-25T01:36:53.848Z,99.99
2016-11-25T01:37:53.826Z,99.99
2016-11-25T01:38:53.807Z,99.99
2016-11-25T01:39:53.790Z,99.99
2016-11-25T01:40:53.765Z,99.99
2016-11-25T01:41:53.746Z,99.99
2016-11-25T01:42:53.731Z,99.99
2016-11-25T01:43:53.703Z,99.99
2016-11-25T01:44:53.685Z,99.99
2016-11-25T01:45:53.661Z,99.99
2016-11-25T01:46:53.643Z,99.99
2016-11-25T01:47:53.822Z,99.99
2016-11-25T01:48:53.600Z,99.99
2016-11-25T01:49:53.582Z,99.99
2016-11-25T01:50:53.562Z,99.99
2016-11-25T01:51:53.569Z,99.99
2016-11-25T01:52:53.521Z,99.99
2016-11-25T01:53:53.500Z,99.99
2016-11-25T01:54:53.477Z,99.99
2016-11-25T01:55:53.453Z,99.99
2016-11-25T01:56:53.769Z,99.99
2016-11-25T01:57:53.420Z,99.99
2016-11-25T01:58:53.449Z,99.99
2016-11-25T01:59:53.381Z,99.99
2016-11-25T02:00:53.680Z,99.99
2016-11-25T02:01:53.364Z,99.99
2016-11-25T02:02:53.316Z,99.99
2016-11-25T02:03:53.294Z,99.99
2016-11-25T02:04:53.590Z,99.99
2016-11-25T02:05:53.251Z,99.99
2016-11-25T02:06:53.546Z,99.99
2016-11-25T02:07:53.211Z,99.99
2016-11-25T02:08:53.190Z,99.99
2016-11-25T02:09:53.174Z,99.99
2016-11-25T02:10:53.147Z,99.99
2016-11-25T02:11:53.128Z,99.99
2016-11-25T02:12:53.112Z,99.99
2016-11-25T02:13:53.090Z,99.99
2016-11-25T02:14:53.065Z,99.99
2016-11-25T02:15:53.043Z,99.99
2016-11-25T02:16:53.025Z,99.99
2016-11-25T02:17:53.002Z,99.99
2016-11-25T02:18:52.981Z,99.99
2016-11-25T02:19:52.962Z,99.99
2016-11-25T02:20:53.254Z,99.99
2016-11-25T02:21:53.251Z,99.99
2016-11-25T02:22:52.900Z,99.99
2016-11-25T02:23:53.190Z,99.99
2016-11-25T02:24:52.855Z,99.99
2016-11-25T02:25:52.838Z,99.99
2016-11-25T02:26:52.814Z,99.99
2016-11-25T02:27:52.795Z,99.99
2016-11-25T02:28:52.772Z,99.99
2016-11-25T02:29:52.754Z,99.99
2016-11-25T02:30:52.729Z,99.99
2016-11-25T02:31:52.713Z,99.99
2016-11-25T02:32:52.697Z,99.99
2016-11-25T02:33:52.668Z,99.99
2016-11-25T02:34:52.654Z,99.99
2016-11-25T02:35:52.629Z,99.99
2016-11-25T02:36:52.608Z,99.99
2016-11-25T02:37:52.584Z,99.99
2016-11-25T02:38:52.562Z,99.99
2016-11-25T02:39:52.545Z,99.99
2016-11-25T02:40:52.526Z,99.99
2016-11-25T02:41:52.502Z,99.99
2016-11-25T02:42:52.480Z,99.99
2016-11-25T02:43:52.461Z,99.99
2016-11-25T02:44:52.439Z,99.99
2016-11-25T02:45:52.733Z,99.99
2016-11-25T02:46:52.711Z,99.99
2016-11-25T02:47:52.379Z,99.99
2016-11-25T02:48:52.356Z,99.99
2016-11-25T02:49:52.339Z,99.99
2016-11-25T02:50:52.323Z,99.99
2016-11-25T02:51:52.297Z,99.99
2016-11-25T02:52:52.273Z,99.99
2016-11-25T02:53:52.251Z,99.99
2016-11-25T02:54:52.235Z,99.99
2016-11-25T02:55:52.210Z,99.99
2016-11-25T02:56:52.190Z,99.99
2016-11-25T02:57:52.168Z,99.99
2016-11-25T02:58:52.145Z,99.99
2016-11-25T02:59:52.125Z,99.99
2016-11-25T03:00:52.109Z,99.99
2016-11-25T03:01:52.084Z,99.99
2016-11-25T03:02:52.062Z,99.99
2016-11-25T03:03:52.069Z,99.99
2016-11-25T03:04:52.023Z,99.99
2016-11-25T03:05:52.321Z,99.99
2016-11-25T03:06:52.297Z,99.99
2016-11-25T03:07:51.961Z,99.99
2016-11-25T03:08:51.937Z,99.99
2016-11-25T03:09:51.918Z,99.99
2016-11-25T03:10:51.895Z,99.99
2016-11-25T03:11:51.873Z,99.99
2016-11-25T03:12:52.165Z,99.99
2016-11-25T03:13:51.830Z,99.99
2016-11-25T03:14:51.811Z,99.99
2016-11-25T03:15:51.789Z,99.99
2016-11-25T03:16:51.770Z,99.99
2016-11-25T03:17:51.748Z,99.99
2016-11-25T03:18:51.724Z,99.99
2016-11-25T03:19:51.703Z,99.99
2016-11-25T03:20:51.685Z,99.99
2016-11-25T03:21:51.661Z,99.99
2016-11-25T03:22:51.962Z,99.99
2016-11-25T03:23:51.621Z,99.99
2016-11-25T03:24:51.607Z,99.99
2016-11-25T03:25:51.579Z,99.99
2016-11-25T03:26:51.870Z,99.99
2016-11-25T03:27:51.539Z,99.99
2016-11-25T03:28:51.516Z,99.99
2016-11-25T03:29:51.505Z,99.99
2016-11-25T03:30:51.470Z,99.99
2016-11-25T03:31:51.451Z,99.99
2016-11-25T03:32:51.430Z,99.99
2016-11-25T03:33:51.412Z,99.99
2016-11-25T03:34:51.388Z,99.99
2016-11-25T03:35:51.366Z,99.99
2016-11-25T03:36:51.346Z,99.99
2016-11-25T03:37:51.327Z,99.99
2016-11-25T03:38:51.306Z,99.99
2016-11-25T03:39:51.312Z,99.99
2016-11-25T03:40:51.263Z,99.99
2016-11-25T03:41:51.243Z,99.99
2016-11-25T03:42:51.218Z,99.99
2016-11-25T03:43:51.199Z,99.99
2016-11-25T03:44:51.175Z,99.99
2016-11-25T03:45:51.156Z,99.99
2016-11-25T03:46:51.133Z,99.99
2016-11-25T03:47:51.314Z,99.99
2016-11-25T03:48:51.406Z,99.99
2016-11-25T03:49:51.069Z,99.99
2016-11-25T03:50:51.048Z,99.99
2016-11-25T03:51:51.027Z,99.99
2016-11-25T03:52:51.003Z,99.99
2016-11-25T03:53:50.983Z,99.99
2016-11-25T03:54:50.964Z,99.99
2016-11-25T03:55:50.978Z,99.99
2016-11-25T03:56:50.921Z,99.99
2016-11-25T03:57:50.900Z,99.99
2016-11-25T03:58:50.880Z,99.99
2016-11-25T03:59:50.858Z,99.99
2016-11-25T04:00:50.835Z,99.99
2016-11-25T04:01:50.816Z,99.99
2016-11-25T04:02:50.794Z,99.99
2016-11-25T04:03:50.769Z,99.99
2016-11-25T04:04:50.750Z,99.99
2016-11-25T04:05:50.728Z,99.99
2016-11-25T04:06:50.707Z,99.99
2016-11-25T04:07:50.689Z,99.99
2016-11-25T04:08:50.666Z,99.99
2016-11-25T04:09:50.643Z,99.99
2016-11-25T04:10:50.637Z,99.99
2016-11-25T04:11:50.606Z,99.99
2016-11-25T04:12:50.578Z,99.99
2016-11-25T04:13:50.562Z,99.99
2016-11-25T04:14:50.535Z,99.99
2016-11-25T04:15:50.535Z,99.99
2016-11-25T04:16:50.496Z,99.99
2016-11-25T04:17:50.788Z,99.99
2016-11-25T04:18:50.462Z,99.99
2016-11-25T04:19:50.429Z,99.99
2016-11-25T04:20:50.405Z,99.99
2016-11-25T04:21:50.385Z,99.99
2016-11-25T04:22:50.676Z,99.99
2016-11-25T04:23:50.344Z,99.99
2016-11-25T04:24:50.323Z,99.99
2016-11-25T04:25:50.298Z,99.99
2016-11-25T04:26:50.276Z,99.99
2016-11-25T04:27:50.257Z,99.99
2016-11-25T04:28:50.235Z,99.99
2016-11-25T04:29:50.215Z,99.99
2016-11-25T04:30:50.191Z,99.99
2016-11-25T04:31:50.176Z,99.99
2016-11-25T04:32:50.169Z,99.99
2016-11-25T04:33:50.162Z,99.99
2016-11-25T04:34:50.105Z,99.99
2016-11-25T04:35:50.086Z,99.99
2016-11-25T04:36:50.063Z,99.99
2016-11-25T04:37:50.044Z,99.99
2016-11-25T04:38:50.022Z,99.99
2016-11-25T04:39:49.997Z,99.99
2016-11-25T04:40:49.979Z,99.99
2016-11-25T04:41:49.956Z,99.99
2016-11-25T04:42:49.934Z,99.99
2016-11-25T04:43:49.914Z,99.99
2016-11-25T04:44:49.889Z,99.99
2016-11-25T04:45:49.873Z,99.99
2016-11-25T04:46:49.847Z,99.99
2016-11-25T04:47:49.826Z,99.99
2016-11-25T04:48:49.808Z,99.99
2016-11-25T04:49:49.780Z,99.99
2016-11-25T04:50:49.762Z,99.99
2016-11-25T04:51:49.740Z,99.99
2016-11-25T04:52:49.723Z,99.99
2016-11-25T04:53:49.696Z,99.99
2016-11-25T04:54:49.988Z,99.99
2016-11-25T04:55:49.653Z,99.99
2016-11-25T04:56:49.633Z,99.99
2016-11-25T04:57:49.611Z,99.99
2016-11-25T04:58:49.590Z,99.99
2016-11-25T04:59:49.568Z,99.99
2016-11-25T05:00:49.865Z,99.99
2016-11-25T05:01:49.523Z,99.99
2016-11-25T05:02:49.505Z,99.99
2016-11-25T05:03:49.480Z,99.99
2016-11-25T05:04:49.459Z,99.99
2016-11-25T05:05:49.438Z,99.99
2016-11-25T05:06:49.414Z,99.99
2016-11-25T05:07:49.397Z,99.99
2016-11-25T05:08:49.368Z,99.99
2016-11-25T05:09:49.348Z,99.99
2016-11-25T05:10:49.329Z,99.99
2016-11-25T05:11:49.305Z,99.99
2016-11-25T05:12:49.286Z,99.99
2016-11-25T05:13:49.264Z,99.99
2016-11-25T05:14:49.244Z,99.99
2016-11-25T05:15:49.221Z,99.99
2016-11-25T05:16:49.195Z,99.99
2016-11-25T05:17:49.177Z,99.99
2016-11-25T05:18:49.158Z,99.99
2016-11-25T05:19:49.135Z,99.99
2016-11-25T05:20:49.138Z,99.99
2016-11-25T05:21:49.091Z,99.99
2016-11-25T05:22:49.066Z,99.99
2016-11-25T05:23:49.085Z,99.99
2016-11-25T05:24:49.023Z,99.99
2016-11-25T05:25:49.003Z,99.99
2016-11-25T05:26:48.984Z,99.99
2016-11-25T05:27:48.959Z,99.99
2016-11-25T05:28:48.943Z,99.99
2016-11-25T05:29:48.915Z,99.99
2016-11-25T05:30:48.893Z,99.99
2016-11-25T05:31:48.871Z,99.99
2016-11-25T05:32:48.848Z,99.99
2016-11-25T05:33:48.832Z,99.99
2016-11-25T05:34:48.804Z,99.99
2016-11-25T05:35:48.783Z,99.99
2016-11-25T05:36:49.078Z,99.99
2016-11-25T05:37:48.742Z,99.99
2016-11-25T05:38:48.721Z,99.99
2016-11-25T05:39:49.009Z,99.99
2016-11-25T05:40:48.677Z,99.99
2016-11-25T05:41:48.655Z,99.99
2016-11-25T05:42:48.646Z,99.99
2016-11-25T05:43:48.622Z,99.99
2016-11-25T05:44:48.593Z,99.99
2016-11-25T05:45:48.566Z,99.99
2016-11-25T05:46:48.550Z,99.99
2016-11-25T05:47:48.529Z,99.99
2016-11-25T05:48:48.502Z,99.99
2016-11-25T05:49:48.479Z,99.99
2016-11-25T05:50:48.456Z,99.99
2016-11-25T05:51:48.436Z,99.99
2016-11-25T05:52:48.413Z,99.99
2016-11-25T05:53:48.393Z,99.99
2016-11-25T05:54:48.374Z,99.99
2016-11-25T05:55:48.669Z,99.99
2016-11-25T05:56:48.641Z,99.99
2016-11-25T05:57:48.301Z,99.99
2016-11-25T05:58:48.282Z,99.99
2016-11-25T05:59:48.262Z,99.99
2016-11-25T06:00:48.238Z,99.99
2016-11-25T06:01:48.216Z,99.99
2016-11-25T06:02:48.197Z,99.99
2016-11-25T06:03:48.169Z,99.99
2016-11-25T06:04:48.202Z,99.99
2016-11-25T06:05:48.138Z,99.99
2016-11-25T06:06:48.111Z,99.99
2016-11-25T06:07:48.083Z,99.99
2016-11-25T06:08:48.064Z,99.99
2016-11-25T06:09:48.040Z,99.99
2016-11-25T06:10:48.022Z,99.99
2016-11-25T06:11:48.005Z,99.99
2016-11-25T06:12:47.976Z,99.99
2016-11-25T06:13:47.957Z,99.99
2016-11-25T06:14:47.933Z,99.99
2016-11-25T06:15:47.909Z,99.99
2016-11-25T06:16:47.885Z,99.99
2016-11-25T06:17:47.865Z,99.99
2016-11-25T06:18:47.843Z,99.99
2016-11-25T06:19:47.819Z,99.99
2016-11-25T06:20:47.803Z,99.99
2016-11-25T06:21:47.777Z,99.99
2016-11-25T06:22:47.755Z,99.99
2016-11-25T06:23:47.733Z,99.99
2016-11-25T06:24:47.715Z,99.99
2016-11-25T06:25:47.693Z,99.99
2016-11-25T06:26:47.670Z,99.99
2016-11-25T06:27:47.646Z,99.99
2016-11-25T06:28:47.944Z,99.99
2016-11-25T06:29:47.603Z,99.99
2016-11-25T06:30:47.580Z,99.99
2016-11-25T06:31:47.556Z,99.99
2016-11-25T06:32:47.535Z,99.99
2016-11-25T06:33:47.546Z,99.99
2016-11-25T06:34:47.489Z,99.99
2016-11-25T06:35:47.467Z,99.99
2016-11-25T06:36:47.444Z,99.99
2016-11-25T06:37:47.431Z,99.99
2016-11-25T06:38:47.407Z,99.99
2016-11-25T06:39:47.698Z,99.99
2016-11-25T06:40:47.358Z,99.99
2016-11-25T06:41:47.332Z,99.99
2016-11-25T06:42:47.310Z,99.99
2016-11-25T06:43:47.291Z,99.99
2016-11-25T06:44:47.269Z,99.99
2016-11-25T06:45:47.247Z,99.99
2016-11-25T06:46:47.226Z,99.99
2016-11-25T06:47:47.200Z,99.99
2016-11-25T06:48:47.181Z,99.99
2016-11-25T06:49:47.160Z,99.99
2016-11-25T06:50:47.136Z,99.99
2016-11-25T06:51:47.116Z,99.99
2016-11-25T06:52:47.090Z,99.99
2016-11-25T06:53:47.074Z,99.99
2016-11-25T06:54:47.052Z,99.99
2016-11-25T06:55:47.342Z,99.99
2016-11-25T06:56:47.005Z,99.99
2016-11-25T06:57:47.052Z,99.99
2016-11-25T06:58:46.965Z,99.99
2016-11-25T06:59:46.938Z,99.99
2016-11-25T07:00:46.915Z,99.99
2016-11-25T07:01:47.209Z,99.99
2016-11-25T07:02:46.869Z,99.99
2016-11-25T07:03:46.851Z,99.99
2016-11-25T07:04:46.830Z,99.99
2016-11-25T07:05:46.806Z,99.99
2016-11-25T07:06:46.782Z,99.99
2016-11-25T07:07:46.762Z,99.99
2016-11-25T07:08:46.744Z,99.99
2016-11-25T07:09:46.718Z,99.99
2016-11-25T07:10:46.703Z,99.99
2016-11-25T07:11:46.670Z,99.99
2016-11-25T07:12:46.650Z,99.99
2016-11-25T07:13:46.630Z,99.99
2016-11-25T07:14:46.607Z,99.99
2016-11-25T07:15:46.584Z,99.99
2016-11-25T07:16:46.569Z,99.99
2016-11-25T07:17:46.545Z,99.99
2016-11-25T07:18:46.522Z,99.99
2016-11-25T07:19:46.502Z,99.99
2016-11-25T07:20:46.476Z,99.99
2016-11-25T07:21:46.456Z,99.99
2016-11-25T07:22:46.432Z,99.99
2016-11-25T07:23:46.409Z,99.99
2016-11-25T07:24:46.393Z,99.99
2016-11-25T07:25:46.365Z,99.99
2016-11-25T07:26:46.348Z,99.99
2016-11-25T07:27:46.323Z,99.99
2016-11-25T07:28:46.304Z,99.99
2016-11-25T07:29:46.278Z,99.99
2016-11-25T07:30:46.258Z,99.99
2016-11-25T07:31:46.232Z,99.99
2016-11-25T07:32:46.264Z,99.99
2016-11-25T07:33:46.192Z,99.99
2016-11-25T07:34:46.170Z,99.99
2016-11-25T07:35:46.147Z,99.99
2016-11-25T07:36:46.125Z,99.99
2016-11-25T07:37:46.109Z,99.99
2016-11-25T07:38:46.083Z,99.99
2016-11-25T07:39:46.059Z,99.99
2016-11-25T07:40:46.035Z,99.99
2016-11-25T07:41:46.017Z,99.99
2016-11-25T07:42:45.996Z,99.99
2016-11-25T07:43:45.970Z,99.99
2016-11-25T07:44:45.951Z,99.99
2016-11-25T07:45:45.931Z,99.99
2016-11-25T07:46:45.904Z,99.99
2016-11-25T07:47:45.888Z,99.99
2016-11-25T07:48:46.065Z,99.99
2016-11-25T07:49:45.840Z,99.99
2016-11-25T07:50:45.842Z,99.99
2016-11-25T07:51:45.798Z,99.99
2016-11-25T07:52:45.778Z,99.99
2016-11-25T07:53:45.753Z,99.99
2016-11-25T07:54:45.733Z,99.99
2016-11-25T07:55:45.712Z,99.99
2016-11-25T07:56:45.687Z,99.99
2016-11-25T07:57:45.666Z,99.99
2016-11-25T07:58:45.645Z,99.99
2016-11-25T07:59:45.625Z,99.99
2016-11-25T08:00:45.599Z,99.99
2016-11-25T08:01:45.581Z,99.99
2016-11-25T08:02:45.563Z,99.99
2016-11-25T08:03:45.535Z,99.99
2016-11-25T08:04:45.518Z,99.99
2016-11-25T08:05:45.493Z,99.99
2016-11-25T08:06:45.472Z,99.99
2016-11-25T08:07:45.452Z,99.99
2016-11-25T08:08:45.426Z,99.99
2016-11-25T08:09:45.404Z,99.99
2016-11-25T08:10:45.383Z,99.99
2016-11-25T08:11:45.362Z,99.99
2016-11-25T08:12:45.347Z,99.99
2016-11-25T08:13:45.635Z,99.99
2016-11-25T08:14:45.297Z,99.99
2016-11-25T08:15:45.281Z,99.99
2016-11-25T08:16:45.253Z,99.99
2016-11-25T08:17:45.237Z,99.99
2016-11-25T08:18:45.213Z,99.99
2016-11-25T08:19:45.193Z,99.99
2016-11-25T08:20:45.172Z,99.99
2016-11-25T08:21:45.466Z,99.99
2016-11-25T08:22:45.125Z,99.99
2016-11-25T08:23:45.106Z,99.99
2016-11-25T08:24:45.086Z,99.99
2016-11-25T08:25:45.067Z,99.99
2016-11-25T08:26:45.358Z,99.99
2016-11-25T08:27:45.021Z,99.99
2016-11-25T08:28:44.998Z,99.99
2016-11-25T08:29:44.979Z,99.99
2016-11-25T08:30:45.274Z,99.99
2016-11-25T08:31:44.938Z,99.99
2016-11-25T08:32:44.918Z,99.99
2016-11-25T08:33:45.204Z,99.99
2016-11-25T08:34:44.879Z,99.99
2016-11-25T08:35:44.852Z,99.99
2016-11-25T08:36:44.834Z,99.99
2016-11-25T08:37:44.817Z,99.99
2016-11-25T08:38:44.788Z,99.99
2016-11-25T08:39:44.766Z,99.99
2016-11-25T08:40:44.751Z,99.99
2016-11-25T08:41:44.738Z,99.99
2016-11-25T08:42:44.719Z,99.99
2016-11-25T08:43:44.684Z,99.99
2016-11-25T08:44:44.662Z,99.99
2016-11-25T08:45:44.640Z,99.99
2016-11-25T08:46:44.619Z,99.99
2016-11-25T08:47:44.914Z,99.99
2016-11-25T08:48:44.580Z,99.99
2016-11-25T08:49:44.558Z,99.99
2016-11-25T08:50:44.541Z,99.99
2016-11-25T08:51:44.527Z,99.99
2016-11-25T08:52:44.496Z,99.99
2016-11-25T08:53:44.479Z,99.99
2016-11-25T08:54:44.455Z,99.99
2016-11-25T08:55:44.752Z,99.99
2016-11-25T08:56:44.415Z,99.99
2016-11-25T08:57:44.396Z,99.99
2016-11-25T08:58:44.373Z,99.99
2016-11-25T08:59:44.672Z,99.99
2016-11-25T09:00:44.332Z,99.99
2016-11-25T09:01:44.326Z,99.99
2016-11-25T09:02:44.291Z,99.99
2016-11-25T09:03:44.271Z,99.99
2016-11-25T09:04:44.252Z,99.99
2016-11-25T09:05:44.227Z,99.99
2016-11-25T09:06:44.208Z,99.99
2016-11-25T09:07:44.190Z,99.99
2016-11-25T09:08:44.167Z,99.99
2016-11-25T09:09:44.144Z,99.99
2016-11-25T09:10:44.124Z,99.99
2016-11-25T09:11:44.108Z,99.99
2016-11-25T09:12:44.086Z,99.99
2016-11-25T09:13:44.070Z,99.99
2016-11-25T09:14:44.061Z,99.99
2016-11-25T09:15:44.023Z,99.99
2016-11-25T09:16:44.002Z,99.99
2016-11-25T09:17:43.986Z,99.99
2016-11-25T09:18:43.967Z,99.99
2016-11-25T09:19:43.942Z,99.99
2016-11-25T09:20:43.926Z,99.99
2016-11-25T09:21:43.902Z,99.99
2016-11-25T09:22:43.918Z,99.99
2016-11-25T09:23:44.178Z,99.99
2016-11-25T09:24:43.895Z,99.99
2016-11-25T09:25:43.827Z,99.99
2016-11-25T09:26:43.803Z,99.99
2016-11-25T09:27:44.104Z,99.99
2016-11-25T09:28:43.778Z,99.99
2016-11-25T09:29:43.751Z,99.99
2016-11-25T09:30:44.048Z,99.99
2016-11-25T09:31:43.754Z,99.99
2016-11-25T09:32:43.694Z,99.99
2016-11-25T09:33:43.677Z,99.99
2016-11-25T09:34:43.655Z,99.99
2016-11-25T09:35:43.640Z,99.99
2016-11-25T09:36:43.652Z,99.99
2016-11-25T09:37:43.607Z,99.99
2016-11-25T09:38:43.582Z,99.99
2016-11-25T09:39:43.560Z,99.99
2016-11-25T09:40:43.544Z,99.99
2016-11-25T09:41:43.527Z,99.99
2016-11-25T09:42:43.511Z,99.99
2016-11-25T09:43:43.493Z,99.99
2016-11-25T09:44:43.473Z,99.99
2016-11-25T09:45:43.456Z,99.99
2016-11-25T09:46:43.436Z,99.99
2016-11-25T09:47:43.421Z,99.99
2016-11-25T09:48:43.607Z,99.99
2016-11-25T09:49:43.391Z,99.99
2016-11-25T09:50:43.380Z,99.99
2016-11-25T09:51:43.354Z,99.99
2016-11-25T09:52:43.330Z,99.99
2016-11-25T09:53:43.317Z,99.99
2016-11-25T09:54:43.302Z,99.99
2016-11-25T09:55:43.284Z,99.99
2016-11-25T09:56:43.268Z,99.99
2016-11-25T09:57:43.250Z,99.99
2016-11-25T09:58:43.233Z,99.99
2016-11-25T09:59:43.227Z,99.98
2016-11-25T10:00:43.201Z,99.12
2016-11-25T10:01:43.189Z,99.6
2016-11-25T10:02:43.173Z,98.83
2016-11-25T10:03:43.161Z,99.5
2016-11-25T10:04:43.146Z,97.98
2016-11-25T10:05:43.130Z,97.08
2016-11-25T10:06:43.114Z,97.08
2016-11-25T10:07:43.100Z,96.98
2016-11-25T10:08:43.087Z,97.36
2016-11-25T10:09:43.073Z,96.22
2016-11-25T10:10:43.055Z,94.74
2016-11-25T10:11:43.062Z,94.56
2016-11-25T10:12:43.026Z,95.41
2016-11-25T10:13:43.013Z,95.65
2016-11-25T10:14:42.999Z,95.22
2016-11-25T10:15:42.987Z,95.32
2016-11-25T10:16:42.971Z,94.37
2016-11-25T10:17:42.959Z,92.74
2016-11-25T10:18:42.946Z,91.27
2016-11-25T10:19:42.930Z,90.5
2016-11-25T10:20:42.919Z,89.55
2016-11-25T10:21:42.903Z,89.17
2016-11-25T10:22:42.891Z,89.46
2016-11-25T10:23:42.877Z,89.46
2016-11-25T10:24:42.867Z,89.07
2016-11-25T10:25:42.855Z,87.88
2016-11-25T10:26:42.838Z,86.55
2016-11-25T10:27:42.831Z,86.36
2016-11-25T10:28:42.817Z,86.07
2016-11-25T10:29:42.808Z,83.69
2016-11-25T10:30:42.801Z,83.97
2016-11-25T10:31:42.781Z,85.97
2016-11-25T10:32:42.770Z,86.12
2016-11-25T10:33:42.758Z,85.93
2016-11-25T10:34:42.745Z,86.6
2016-11-25T10:35:42.735Z,86.84
2016-11-25T10:36:42.725Z,88.84
2016-11-25T10:37:42.710Z,88.46
2016-11-25T10:38:42.701Z,89.03
2016-11-25T10:39:42.686Z,87.07
2016-11-25T10:40:42.675Z,87.65
2016-11-25T10:41:42.717Z,85.17
2016-11-25T10:42:42.655Z,83.74
2016-11-25T10:43:42.639Z,81.21
2016-11-25T10:44:42.630Z,81.97
2016-11-25T10:45:42.616Z,80.73
2016-11-25T10:46:42.604Z,79.97
2016-11-25T10:47:42.594Z,79.59
2016-11-25T10:48:42.582Z,79.68
2016-11-25T10:49:42.573Z,79.59
2016-11-25T10:50:42.561Z,83.17
2016-11-25T10:51:42.549Z,82.45
2016-11-25T10:52:42.537Z,80.79
2016-11-25T10:53:42.577Z,83.07
2016-11-25T10:54:42.826Z,81.12
2016-11-25T10:55:42.505Z,79.97
2016-11-25T10:56:42.505Z,78.92
2016-11-25T10:57:42.490Z,78.35
2016-11-25T10:58:42.483Z,77.82
2016-11-25T10:59:42.462Z,74.77
2016-11-25T11:00:42.475Z,74.01
2016-11-25T11:01:42.451Z,74.1
2016-11-25T11:02:42.432Z,74.01
2016-11-25T11:03:42.423Z,73.14
2016-11-25T11:04:42.418Z,74.01
2016-11-25T11:05:42.401Z,73.72
2016-11-25T11:06:42.392Z,74.38
2016-11-25T11:07:42.390Z,75.34
2016-11-25T11:08:42.379Z,74.19
2016-11-25T11:09:42.363Z,74.19
2016-11-25T11:10:42.399Z,74.19
2016-11-25T11:11:42.341Z,72.67
2016-11-25T11:12:42.333Z,71.52
2016-11-25T11:13:42.322Z,70.47
2016-11-25T11:14:42.311Z,70.7
2016-11-25T11:15:42.302Z,71.23
2016-11-25T11:16:42.294Z,69.93
2016-11-25T11:17:42.280Z,72.09
2016-11-25T11:18:42.277Z,70.38
2016-11-25T11:19:42.260Z,71.52
2016-11-25T11:20:42.253Z,73.33
2016-11-25T11:21:42.244Z,73.77
2016-11-25T11:22:42.232Z,74.54
2016-11-25T11:23:42.222Z,76.5
2016-11-25T11:24:42.208Z,78.03
2016-11-25T11:25:42.210Z,80.94
2016-11-25T11:26:42.193Z,83.13
2016-11-25T11:27:42.175Z,85.89
2016-11-25T11:28:42.167Z,84.17
2016-11-25T11:29:42.152Z,85.56
2016-11-25T11:30:42.148Z,85.75
2016-11-25T11:31:42.127Z,85.08
2016-11-25T11:32:42.125Z,86.22
2016-11-25T11:33:42.104Z,88.23
2016-11-25T11:34:42.087Z,88.79
2016-11-25T11:35:42.081Z,88.04
2016-11-25T11:36:42.064Z,88.37
2016-11-25T11:37:42.049Z,89.8
2016-11-25T11:38:42.035Z,88.56
2016-11-25T11:39:42.022Z,89.42
2016-11-25T11:40:42.009Z,90.37
2016-11-25T11:41:41.996Z,88.85
2016-11-25T11:42:41.983Z,90.37
2016-11-25T11:43:41.969Z,89.8
2016-11-25T11:44:41.953Z,90.18
2016-11-25T11:45:41.938Z,88.46
2016-11-25T11:46:41.926Z,89.42
2016-11-25T11:47:41.909Z,90.18
2016-11-25T11:48:42.130Z,90.08
2016-11-25T11:49:41.884Z,90.28
2016-11-25T11:50:41.872Z,90.94
2016-11-25T11:51:41.855Z,89.99
2016-11-25T11:52:41.846Z,90.18
2016-11-25T11:53:41.842Z,88.66
2016-11-25T11:54:41.816Z,89.42
2016-11-25T11:55:41.801Z,89.8
2016-11-25T11:56:41.786Z,89.47
2016-11-25T11:57:41.774Z,86.8
2016-11-25T11:58:41.761Z,86.8
2016-11-25T11:59:42.063Z,85.03
2016-11-25T12:00:41.731Z,82.6
2016-11-25T12:01:41.718Z,79.78
2016-11-25T12:02:41.711Z,74.16
2016-11-25T12:03:41.699Z,72
2016-11-25T12:04:41.686Z,68.88
2016-11-25T12:05:41.672Z,67.27
2016-11-25T12:06:41.660Z,66.35
2016-11-25T12:07:41.820Z,64.72
2016-11-25T12:08:41.971Z,64.72
2016-11-25T12:09:41.634Z,62.94
2016-11-25T12:10:41.630Z,62.84
2016-11-25T12:11:41.617Z,63.03
2016-11-25T12:12:41.606Z,59.98
2016-11-25T12:13:41.597Z,59.24
2016-11-25T12:14:41.587Z,59.81
2016-11-25T12:15:41.579Z,57.53
2016-11-25T12:16:41.573Z,56.28
2016-11-25T12:17:41.886Z,56.85
2016-11-25T12:18:41.558Z,56.5
2016-11-25T12:19:41.550Z,56.6
2016-11-25T12:20:41.543Z,55.54
2016-11-25T12:21:41.534Z,55.35
2016-11-25T12:22:41.561Z,54.68
2016-11-25T12:23:41.522Z,55.67
2016-11-25T12:24:41.512Z,53.56
2016-11-25T12:25:41.511Z,52.25
2016-11-25T12:26:41.499Z,51.39
2016-11-25T12:27:41.497Z,51.87
2016-11-25T12:28:41.497Z,50.43
2016-11-25T12:29:41.482Z,49.66
2016-11-25T12:30:41.479Z,49.38
2016-11-25T12:31:41.469Z,49.48
2016-11-25T12:32:41.467Z,50.24
2016-11-25T12:33:41.462Z,50.52
2016-11-25T12:34:41.455Z,50.24
2016-11-25T12:35:41.446Z,50.72
2016-11-25T12:36:41.446Z,51.2
2016-11-25T12:37:41.446Z,50.62
2016-11-25T12:38:41.431Z,49.02
2016-11-25T12:39:41.426Z,49.19
2016-11-25T12:40:41.742Z,48.9
2016-11-25T12:41:41.416Z,49.09
2016-11-25T12:42:41.459Z,49.48
2016-11-25T12:43:41.401Z,49.38
2016-11-25T12:44:41.400Z,49.29
2016-11-25T12:45:41.396Z,48.9
2016-11-25T12:46:41.392Z,48.52
2016-11-25T12:47:41.428Z,49.19
2016-11-25T12:48:41.711Z,48.33
2016-11-25T12:49:41.377Z,49.19
2016-11-25T12:50:41.376Z,49.19
2016-11-25T12:51:41.368Z,48.8
2016-11-25T12:52:41.361Z,48.9
2016-11-25T12:53:41.354Z,48.64